createdAt,value
2022-11-04T00:02:56.533Z,99716.77
2022-11-04T00:08:18.276Z,99709.91
2022-11-04T00:13:21.687Z,99706.66
2022-11-04T00:18:25.000Z,99710.69
2022-11-04T00:23:47.357Z,99709.48
2022-11-04T00:28:53.331Z,99702.89
2022-11-04T00:33:58.853Z,99703.70
2022-11-04T00:39:02.213Z,99698.41
2022-11-04T00:44:06.029Z,99687.59
2022-11-04T00:49:09.438Z,99682.84
2022-11-04T00:54:12.853Z,99677.36
2022-11-04T00:59:16.880Z,99673.92
2022-11-04T01:04:20.091Z,99670.14
2022-11-04T01:09:24.321Z,99672.30
2022-11-04T01:14:27.733Z,99665.81
2022-11-04T01:19:31.049Z,99657.10
2022-11-04T01:24:34.355Z,99652.05
2022-11-04T01:29:38.077Z,99648.38
2022-11-04T01:34:43.504Z,99644.91
2022-11-04T01:39:47.155Z,99633.17
2022-11-04T01:44:53.950Z,99630.03
2022-11-04T01:50:07.294Z,99628.23
2022-11-04T01:55:16.544Z,99622.30
2022-11-04T02:00:19.955Z,99607.17
2022-11-04T02:05:23.675Z,99596.42
2022-11-04T02:10:29.405Z,99574.43
2022-11-04T02:15:51.290Z,99554.77
2022-11-04T02:21:11.908Z,99561.52
2022-11-04T02:26:33.958Z,99562.39
2022-11-04T02:31:57.851Z,99557.88
2022-11-04T02:37:10.479Z,99549.75
2022-11-04T02:42:23.007Z,99546.88
2022-11-04T02:47:30.347Z,99533.00
2022-11-04T02:52:50.280Z,99531.70
2022-11-04T02:57:59.052Z,99519.92
2022-11-04T03:03:12.811Z,99523.77
2022-11-04T03:08:23.388Z,99533.77
2022-11-04T03:13:37.553Z,99524.88
2022-11-04T03:19:04.213Z,99515.63
2022-11-04T03:24:07.931Z,99512.34
2022-11-04T03:29:33.360Z,99510.50
2022-11-04T03:34:38.309Z,99504.92
2022-11-04T03:39:41.928Z,99506.55
2022-11-04T03:44:52.818Z,99509.20
2022-11-04T03:50:05.553Z,99508.45
2022-11-04T03:55:11.416Z,99503.98
2022-11-04T04:00:17.143Z,99492.67
2022-11-04T04:05:33.584Z,99481.75
2022-11-04T04:11:00.000Z,99471.63
2022-11-04T04:16:06.031Z,99481.31
2022-11-04T04:21:14.257Z,99484.38
2022-11-04T04:26:40.198Z,99471.14
2022-11-04T04:31:50.371Z,99473.04
2022-11-04T04:37:00.543Z,99477.45
2022-11-04T04:42:24.128Z,99470.48
2022-11-04T04:47:32.354Z,99475.63
2022-11-04T04:52:39.861Z,99476.02
2022-11-04T04:57:43.275Z,99467.08
2022-11-04T05:02:47.104Z,99462.48
2022-11-04T05:07:50.409Z,99458.85
2022-11-04T05:13:12.460Z,99460.42
2022-11-04T05:18:15.770Z,99458.11
2022-11-04T05:23:19.287Z,99460.62
2022-11-04T05:28:22.598Z,99455.84
2022-11-04T05:33:26.015Z,99450.04
2022-11-04T05:38:29.322Z,99452.20
2022-11-04T05:43:33.761Z,99444.69
2022-11-04T05:48:40.506Z,99438.23
2022-11-04T05:53:44.783Z,99444.63
2022-11-04T05:58:48.110Z,99445.86
2022-11-04T06:03:52.940Z,99451.70
2022-11-04T06:08:56.767Z,99453.01
2022-11-04T06:14:00.379Z,99452.54
2022-11-04T06:19:07.749Z,99448.42
2022-11-04T06:24:14.280Z,99446.17
2022-11-04T06:29:17.897Z,99441.33
2022-11-04T06:34:21.510Z,99440.47
2022-11-04T06:39:24.822Z,99437.58
2022-11-04T06:44:28.236Z,99432.31
2022-11-04T06:49:31.554Z,99427.27
2022-11-04T06:54:35.061Z,99423.45
2022-11-04T06:59:38.484Z,99419.00
2022-11-04T07:04:41.888Z,99414.73
2022-11-04T07:09:45.300Z,99420.98
2022-11-04T07:14:48.818Z,99421.59
2022-11-04T07:19:52.124Z,99419.20
2022-11-04T07:24:55.643Z,99415.86
2022-11-04T07:29:59.055Z,99427.09
2022-11-04T07:35:02.568Z,99422.58
2022-11-04T07:40:07.201Z,99417.50
2022-11-04T07:45:11.447Z,99410.29
2022-11-04T07:50:14.848Z,99405.04
2022-11-04T07:55:19.090Z,99404.04
2022-11-04T08:00:22.606Z,99394.29
2022-11-04T08:05:26.122Z,99384.44
2022-11-04T08:10:30.252Z,99390.50
2022-11-04T08:15:36.125Z,99394.05
2022-11-04T08:20:39.436Z,99397.80
2022-11-04T08:25:43.358Z,99405.33
2022-11-04T08:30:59.236Z,99406.27
2022-11-04T08:36:12.814Z,99406.21
2022-11-04T08:41:20.055Z,99401.83
2022-11-04T08:46:23.431Z,99401.09
2022-11-04T08:51:28.593Z,99406.70
2022-11-04T08:56:34.965Z,99407.92
2022-11-04T09:01:38.866Z,99416.47
2022-11-04T09:06:46.244Z,99425.13
2022-11-04T09:11:49.609Z,99430.14
2022-11-04T09:16:54.365Z,99431.41
2022-11-04T09:21:57.769Z,99426.02
2022-11-04T09:27:01.178Z,99427.96
2022-11-04T09:32:05.003Z,99419.88
2022-11-04T09:37:08.416Z,99415.45
2022-11-04T09:42:24.222Z,99412.46
2022-11-04T09:47:31.113Z,99400.89
2022-11-04T09:52:44.664Z,99397.27
2022-11-04T09:57:55.711Z,99403.39
2022-11-04T10:03:42.179Z,99393.90
2022-11-04T10:08:54.706Z,99376.60
2022-11-04T10:14:00.886Z,99374.38
2022-11-04T10:19:25.700Z,99377.70
2022-11-04T10:24:43.578Z,99362.97
2022-11-04T10:29:55.316Z,99355.22
2022-11-04T10:35:07.479Z,99347.27
2022-11-04T10:40:39.054Z,99339.00
2022-11-04T10:46:14.825Z,99331.56
2022-11-04T10:51:22.338Z,99326.11
2022-11-04T10:56:48.120Z,99321.73
2022-11-04T11:01:54.738Z,99324.27
2022-11-04T11:07:01.674Z,99326.42
2022-11-04T11:12:44.056Z,99323.87
2022-11-04T11:17:38.895Z,99316.19
2022-11-04T11:22:44.768Z,99309.20
2022-11-04T11:28:09.539Z,99306.04
2022-11-04T11:33:28.255Z,99298.34
2022-11-04T11:38:34.534Z,99292.77
2022-11-04T11:43:42.869Z,99291.23
2022-11-04T11:48:53.257Z,99287.42
2022-11-04T11:54:02.697Z,99272.93
2022-11-04T12:10:18.575Z,99260.69
2022-11-04T12:15:31.610Z,99261.80
2022-11-04T12:21:04.920Z,99259.54
2022-11-04T12:26:26.058Z,99258.44
2022-11-04T12:31:48.203Z,99256.33
2022-11-04T12:37:00.322Z,99250.35
2022-11-04T12:42:32.467Z,99249.95
2022-11-04T12:47:46.776Z,99255.02
2022-11-04T12:53:03.808Z,99257.08
2022-11-04T12:58:13.056Z,99260.31
2022-11-04T13:03:30.418Z,99254.86
2022-11-04T13:08:39.546Z,99249.92
2022-11-04T13:13:42.853Z,99252.84
2022-11-04T13:18:48.214Z,99264.33
2022-11-04T13:24:00.741Z,99256.83
2022-11-04T13:29:12.754Z,99252.94
2022-11-04T13:34:23.042Z,99251.13
2022-11-04T13:39:38.218Z,99241.80
2022-11-04T13:44:45.545Z,99240.10
2022-11-04T13:49:55.701Z,99237.67
2022-11-04T13:55:05.884Z,99239.31
2022-11-04T14:00:15.222Z,99249.30
2022-11-04T14:05:24.468Z,99246.64
2022-11-04T14:10:43.451Z,99241.97
2022-11-04T14:16:13.995Z,99243.23
2022-11-04T14:21:23.752Z,99232.56
2022-11-04T14:26:30.965Z,99229.88
2022-11-04T14:31:46.253Z,99232.31
2022-11-04T14:36:56.950Z,99233.00
2022-11-04T14:42:02.517Z,99238.51
2022-11-04T14:47:27.017Z,99243.46
2022-11-04T14:52:42.401Z,99246.27
2022-11-04T14:57:51.567Z,99264.34
2022-11-04T15:03:45.548Z,99271.12
2022-11-04T15:08:42.105Z,99260.73
2022-11-04T15:13:50.163Z,99265.19
2022-11-04T15:18:56.407Z,99254.52
2022-11-04T15:24:01.872Z,99243.73
2022-11-04T15:29:11.698Z,99243.05
2022-11-04T15:34:15.567Z,99249.36
2022-11-04T15:39:30.739Z,99259.63
2022-11-04T15:44:37.201Z,99273.06
2022-11-04T15:49:40.538Z,99277.43
2022-11-04T15:55:05.586Z,99278.67
2022-11-04T16:00:25.251Z,99280.98
2022-11-04T16:05:33.579Z,99286.52
2022-11-04T16:10:37.885Z,99286.90
2022-11-04T16:15:41.020Z,99292.23
2022-11-04T16:20:47.231Z,99298.61
2022-11-04T16:26:00.765Z,99303.88
2022-11-04T16:31:08.399Z,99308.05
2022-11-04T16:36:23.611Z,99306.09
2022-11-04T16:41:29.524Z,99307.45
2022-11-04T16:46:34.471Z,99305.42
2022-11-04T16:51:37.785Z,99309.50
2022-11-04T16:56:41.093Z,99306.02
2022-11-04T17:01:44.612Z,99308.46
2022-11-04T17:06:48.328Z,99302.45
2022-11-04T17:11:51.638Z,99299.79
2022-11-04T17:16:57.424Z,99294.59
2022-11-04T17:22:03.278Z,99291.63
2022-11-04T17:27:06.898Z,99287.06
2022-11-04T17:32:10.418Z,99281.95
2022-11-04T17:37:14.339Z,99274.29
2022-11-04T17:42:36.595Z,99277.41
2022-11-04T17:47:40.005Z,99273.05
2022-11-04T17:52:44.340Z,99275.73
2022-11-04T17:57:47.651Z,99268.20
2022-11-04T18:02:51.361Z,99266.85
2022-11-04T18:07:56.645Z,99266.77
2022-11-04T18:12:59.940Z,99274.36
2022-11-04T18:18:03.475Z,99275.27
2022-11-04T18:23:07.022Z,99276.18
2022-11-04T18:28:11.206Z,99274.17
2022-11-04T18:33:14.518Z,99269.52
2022-11-04T18:38:17.840Z,99268.03
2022-11-04T18:43:22.876Z,99265.08
2022-11-04T18:48:26.288Z,99268.12
2022-11-04T18:53:29.815Z,99263.10
2022-11-04T18:58:34.997Z,99264.75
2022-11-04T19:03:38.579Z,99267.67
2022-11-04T19:08:46.485Z,99269.23
2022-11-04T19:13:56.021Z,99260.52
2022-11-04T19:19:05.179Z,99262.64
2022-11-04T19:24:11.503Z,99265.27
2022-11-04T19:29:14.893Z,99270.11
2022-11-04T19:34:18.409Z,99270.39
2022-11-04T19:39:21.820Z,99270.75
2022-11-04T19:44:25.348Z,99270.44
2022-11-04T19:49:31.759Z,99269.99
2022-11-04T19:54:35.854Z,99264.69
2022-11-04T19:59:39.035Z,99267.51
2022-11-04T20:12:00.764Z,99276.13
2022-11-04T20:17:07.743Z,99274.32
2022-11-04T20:22:11.057Z,99275.29
2022-11-04T20:27:15.597Z,99273.29
2022-11-04T20:32:19.416Z,99274.88
2022-11-04T20:37:22.729Z,99265.40
2022-11-04T20:42:26.141Z,99259.86
2022-11-04T20:47:29.863Z,99262.08
2022-11-04T20:52:35.394Z,99277.23
2022-11-04T20:57:39.045Z,99276.30
2022-11-04T21:02:42.401Z,99274.01
2022-11-04T21:07:45.871Z,99268.84
2022-11-04T21:12:56.085Z,99266.52
2022-11-04T21:18:02.941Z,99260.72
2022-11-04T21:23:06.860Z,99259.02
2022-11-04T21:28:11.664Z,99258.61
2022-11-04T21:33:15.842Z,99259.65
2022-11-04T21:38:19.254Z,99255.67
2022-11-04T21:43:22.814Z,99254.68
2022-11-04T21:48:26.182Z,99252.18
2022-11-04T21:53:30.951Z,99245.01
2022-11-04T21:58:35.159Z,99252.29
2022-11-04T22:03:38.673Z,99249.35
2022-11-04T22:08:53.969Z,99253.04
2022-11-04T22:14:04.060Z,99261.18
2022-11-04T22:19:10.635Z,99253.46
2022-11-04T22:24:16.788Z,99248.46
2022-11-04T22:29:20.111Z,99255.88
2022-11-04T22:34:23.639Z,99253.83
2022-11-04T22:39:26.947Z,99245.99
2022-11-04T22:44:30.248Z,99247.80
2022-11-04T22:49:33.660Z,99243.02
2022-11-04T22:54:37.176Z,99243.48
2022-11-04T22:59:40.593Z,99247.41
2022-11-04T23:04:45.438Z,99251.39
2022-11-04T23:10:09.123Z,99249.41
2022-11-04T23:15:31.276Z,99256.95
2022-11-04T23:20:34.587Z,99253.73
2022-11-04T23:25:38.104Z,99248.80
2022-11-04T23:30:44.847Z,99244.67
2022-11-04T23:36:08.074Z,99246.69
2022-11-04T23:41:30.329Z,99250.63
2022-11-04T23:46:52.581Z,99251.57
2022-11-04T23:52:14.942Z,99249.92
2022-11-04T23:57:37.809Z,99255.21
